Time;durP1;ratioP1;P1;durP2;ratioP2;P2;SDS_P1;SDS_P2;PMS_P1;PMS_P2;Temp;Humidity;BMP_temperature;BMP_pressure;BME280_temperature;BME280_humidity;BME280_pressure;Samples;Min_cycle;Max_cycle;Signal;HPM_P1;HPM_P2
2021/10/13 00:00:04;;;;;;;4.43;1.40;;;13.30;92.40;;;;;;5033020;28;20059;-67
2021/10/13 00:02:29;;;;;;;5.05;1.30;;;13.30;92.40;;;;;;5033094;28;20113;-67
2021/10/13 00:04:55;;;;;;;4.38;1.60;;;13.30;92.30;;;;;;5034332;28;20108;-67
2021/10/13 00:07:21;;;;;;;4.00;1.50;;;13.30;92.30;;;;;;5034215;28;20017;-67
2021/10/13 00:09:46;;;;;;;3.70;1.40;;;13.30;92.40;;;;;;5033921;28;20064;-67
2021/10/13 00:12:12;;;;;;;5.20;1.70;;;13.20;92.30;;;;;;5033784;28;20393;-67
2021/10/13 00:14:37;;;;;;;5.47;1.48;;;13.20;92.30;;;;;;5034220;28;20041;-67
2021/10/13 00:17:05;;;;;;;5.55;1.60;;;13.20;92.30;;;;;;5034171;28;20037;-67
2021/10/13 00:19:30;;;;;;;5.80;1.48;;;13.20;92.30;;;;;;5033859;28;20017;-68
2021/10/13 00:21:56;;;;;;;5.40;1.83;;;13.20;92.30;;;;;;5034044;28;20029;-68
2021/10/13 00:24:22;;;;;;;6.05;1.85;;;13.20;92.30;;;;;;5034148;28;20087;-67
2021/10/13 00:26:47;;;;;;;4.80;1.70;;;13.20;92.30;;;;;;5032654;28;20440;-67
2021/10/13 00:29:13;;;;;;;5.00;1.65;;;13.20;92.30;;;;;;5033658;28;20029;-67
2021/10/13 00:31:39;;;;;;;5.30;1.98;;;13.20;92.30;;;;;;5032631;28;20020;-67
2021/10/13 00:34:04;;;;;;;5.07;1.83;;;13.20;92.30;;;;;;5033972;28;20084;-67
2021/10/13 00:36:30;;;;;;;5.05;1.67;;;13.20;92.40;;;;;;5032393;28;20029;-68
2021/10/13 00:38:55;;;;;;;4.13;1.63;;;13.20;92.30;;;;;;5033326;28;20056;-67
2021/10/13 00:41:21;;;;;;;3.88;1.48;;;13.20;92.30;;;;;;5033664;28;20413;-67
2021/10/13 00:43:47;;;;;;;5.85;1.60;;;13.20;92.30;;;;;;5033633;28;20025;-68
2021/10/13 00:46:12;;;;;;;5.63;1.77;;;13.20;92.30;;;;;;5033613;28;20029;-67
2021/10/13 00:48:38;;;;;;;5.35;1.70;;;13.20;92.30;;;;;;5033086;28;20124;-68
2021/10/13 00:51:03;;;;;;;4.43;1.90;;;13.20;92.30;;;;;;5033437;28;20083;-67
2021/10/13 00:53:29;;;;;;;3.92;1.60;;;13.20;92.30;;;;;;5033563;28;20041;-68
2021/10/13 00:55:56;;;;;;;4.05;1.80;;;13.20;92.30;;;;;;5032149;28;20021;-67
2021/10/13 00:58:22;;;;;;;4.03;1.60;;;13.20;92.30;;;;;;5031794;28;20040;-67
2021/10/13 01:01:12;;;;;;;5.80;1.70;;;13.20;92.30;;;;;;5033371;28;20025;-67
2021/10/13 01:04:00;;;;;;;5.43;1.77;;;13.20;92.40;;;;;;5033232;28;20053;-67
2021/10/13 01:06:41;;;;;;;4.13;1.50;;;13.20;92.30;;;;;;5033416;28;20096;-67
2021/10/13 01:09:19;;;;;;;5.47;1.63;;;13.20;92.30;;;;;;5032799;28;20055;-67
2021/10/13 01:12:09;;;;;;;6.25;1.90;;;13.20;92.40;;;;;;5033138;28;20025;-67
2021/10/13 01:14:46;;;;;;;4.88;1.75;;;13.20;92.30;;;;;;5031775;28;20025;-67
2021/10/13 01:17:29;;;;;;;5.32;1.90;;;13.20;92.30;;;;;;5033058;28;20592;-67
2021/10/13 01:20:16;;;;;;;5.30;1.92;;;13.20;92.30;;;;;;5032725;28;20041;-67
2021/10/13 01:23:02;;;;;;;5.10;1.83;;;13.20;92.40;;;;;;5032882;28;20079;-67
2021/10/13 01:25:46;;;;;;;5.63;2.05;;;13.20;92.30;;;;;;5030902;28;20036;-67
2021/10/13 01:28:14;;;;;;;4.43;1.75;;;13.20;92.30;;;;;;5031408;28;20278;-66
2021/10/13 01:30:48;;;;;;;6.05;1.88;;;13.20;92.30;;;;;;5032620;28;20025;-67
2021/10/13 01:33:23;;;;;;;5.97;1.60;;;13.20;92.30;;;;;;5031515;28;20032;-67
2021/10/13 01:35:53;;;;;;;4.93;1.60;;;13.20;92.20;;;;;;5032792;28;20025;-67
2021/10/13 01:38:23;;;;;;;6.45;1.90;;;13.10;92.30;;;;;;5032354;28;20022;-67
2021/10/13 01:40:53;;;;;;;4.43;1.70;;;13.20;92.30;;;;;;5031338;28;20063;-67
2021/10/13 01:43:21;;;;;;;5.28;1.85;;;13.10;92.30;;;;;;5031130;28;20033;-67
2021/10/13 01:45:55;;;;;;;5.15;1.80;;;13.20;92.30;;;;;;5032505;28;20071;-67
2021/10/13 01:48:22;;;;;;;6.45;2.13;;;13.10;92.30;;;;;;5032069;28;20450;-67
2021/10/13 01:50:50;;;;;;;5.78;1.92;;;13.20;92.40;;;;;;5032469;28;20044;-67
2021/10/13 01:53:19;;;;;;;4.38;1.70;;;13.10;92.30;;;;;;5032346;28;20026;-67
2021/10/13 01:55:47;;;;;;;4.70;1.80;;;13.10;92.30;;;;;;5032221;28;20068;-67
2021/10/13 01:58:15;;;;;;;3.55;1.60;;;13.10;92.30;;;;;;5032084;28;20603;-67
2021/10/13 02:00:43;;;;;;;4.85;1.95;;;13.10;92.30;;;;;;5030842;28;20523;-67
2021/10/13 02:03:09;;;;;;;5.75;1.90;;;13.10;92.30;;;;;;5030877;28;20027;-67
2021/10/13 02:05:37;;;;;;;4.32;1.98;;;13.10;92.30;;;;;;5030943;28;20026;-67
2021/10/13 02:08:04;;;;;;;5.50;1.83;;;13.10;92.30;;;;;;5031975;28;20393;-67
2021/10/13 02:10:31;;;;;;;6.63;2.30;;;13.10;92.40;;;;;;5031724;28;20029;-67
2021/10/13 02:12:58;;;;;;;6.68;1.90;;;13.10;92.40;;;;;;5031977;28;20056;-67
2021/10/13 02:15:27;;;;;;;4.95;1.95;;;13.10;92.30;;;;;;5032042;28;20487;-67
2021/10/13 02:17:55;;;;;;;5.28;1.90;;;13.10;92.30;;;;;;5031877;28;20030;-67
2021/10/13 02:20:22;;;;;;;7.45;2.25;;;13.10;92.40;;;;;;5031785;28;20024;-67
2021/10/13 02:22:52;;;;;;;8.45;2.88;;;13.10;92.40;;;;;;5031770;28;20481;-67
2021/10/13 02:25:18;;;;;;;6.38;1.98;;;13.10;92.30;;;;;;5031863;28;20061;-67
2021/10/13 02:27:59;;;;;;;4.93;1.98;;;13.10;92.40;;;;;;5031772;28;20392;-67
2021/10/13 02:30:25;;;;;;;5.35;1.80;;;13.10;92.30;;;;;;5031636;28;20026;-67
2021/10/13 02:32:51;;;;;;;3.55;1.50;;;13.10;92.40;;;;;;5031726;28;20032;-67
2021/10/13 02:35:16;;;;;;;4.65;1.95;;;13.10;92.40;;;;;;5020066;28;20080;-67
2021/10/13 02:37:42;;;;;;;4.95;2.00;;;13.10;92.40;;;;;;5029887;28;20026;-67
2021/10/13 02:40:08;;;;;;;6.65;2.08;;;13.10;92.40;;;;;;5031304;28;20033;-67
2021/10/13 02:42:35;;;;;;;5.97;1.75;;;13.10;92.40;;;;;;5031672;28;20480;-67
2021/10/13 02:45:02;;;;;;;5.13;1.90;;;13.10;92.40;;;;;;5031568;28;20497;-67
2021/10/13 02:47:41;;;;;;;5.72;2.40;;;13.10;92.40;;;;;;5031634;28;20022;-67
2021/10/13 02:50:19;;;;;;;7.30;2.25;;;13.10;92.40;;;;;;5048769;22;20045;-71
2021/10/13 02:52:52;;;;;;;6.88;2.30;;;13.10;92.40;;;;;;5031342;28;20629;-73
2021/10/13 02:55:42;;;;;;;6.15;2.08;;;13.10;92.40;;;;;;5031605;28;20048;-71
2021/10/13 02:58:40;;;;;;;6.97;1.90;;;13.10;92.40;;;;;;5031566;28;20037;-71
2021/10/13 03:01:10;;;;;;;8.32;2.00;;;13.10;92.30;;;;;;5011706;28;20281;-70
2021/10/13 03:03:45;;;;;;;7.20;2.28;;;13.10;92.40;;;;;;5010562;28;20167;-71
2021/10/13 03:06:11;;;;;;;6.22;2.20;;;13.10;92.40;;;;;;5011791;28;20026;-73
2021/10/13 03:08:40;;;;;;;5.85;1.83;;;13.10;92.40;;;;;;5011336;28;20022;-71
2021/10/13 03:11:06;;;;;;;6.10;1.92;;;13.10;92.40;;;;;;5011663;28;20413;-71
2021/10/13 03:13:36;;;;;;;4.25;1.85;;;13.10;92.50;;;;;;5011573;28;20037;-71
2021/10/13 03:16:02;;;;;;;5.45;2.15;;;13.10;92.50;;;;;;5011639;28;20037;-72
2021/10/13 03:18:30;;;;;;;5.20;2.13;;;13.10;92.40;;;;;;5011275;28;20063;-71
2021/10/13 03:20:55;;;;;;;7.53;2.45;;;13.10;92.50;;;;;;5011536;28;20052;-71
2021/10/13 03:23:22;;;;;;;5.15;2.08;;;13.10;92.50;;;;;;5010202;28;20560;-73
2021/10/13 03:25:51;;;;;;;4.68;2.03;;;13.10;92.50;;;;;;5011541;28;20045;-72
2021/10/13 03:28:17;;;;;;;4.45;2.03;;;13.10;92.50;;;;;;5011280;28;20025;-70
2021/10/13 03:30:44;;;;;;;5.72;2.13;;;13.10;92.50;;;;;;5011518;28;20037;-71
2021/10/13 03:33:11;;;;;;;5.85;1.88;;;13.10;92.50;;;;;;5011490;28;20026;-73
2021/10/13 03:35:36;;;;;;;5.30;2.15;;;13.10;92.50;;;;;;5011444;28;20018;-71
2021/10/13 03:38:04;;;;;;;4.45;1.98;;;13.10;92.40;;;;;;5011399;28;20573;-72
2021/10/13 03:40:31;;;;;;;4.97;2.10;;;13.10;92.40;;;;;;5011019;28;20089;-72
2021/10/13 03:42:57;;;;;;;5.85;2.25;;;13.10;92.40;;;;;;5011361;28;20030;-71
2021/10/13 03:45:23;;;;;;;5.20;2.10;;;13.10;92.40;;;;;;5011241;28;20030;-71
2021/10/13 03:47:49;;;;;;;8.35;2.25;;;13.10;92.50;;;;;;5012973;28;20026;-72
2021/10/13 03:50:17;;;;;;;4.80;1.75;;;13.00;92.40;;;;;;5014479;28;20038;-71
2021/10/13 03:52:42;;;;;;;5.13;1.80;;;13.10;92.50;;;;;;5014952;28;20068;-70
2021/10/13 03:55:11;;;;;;;5.13;1.98;;;13.10;92.40;;;;;;5014732;28;20107;-71
2021/10/13 03:57:36;;;;;;;4.60;1.90;;;13.10;92.50;;;;;;5014713;28;20029;-71
2021/10/13 04:00:04;;;;;;;5.20;1.90;;;13.10;92.30;;;;;;5008323;28;20521;-71
2021/10/13 04:02:30;;;;;;;6.25;2.10;;;13.10;92.30;;;;;;5007870;28;20076;-72
2021/10/13 04:04:55;;;;;;;5.07;2.00;;;13.10;92.20;;;;;;5013629;28;20029;-72
2021/10/13 04:07:21;;;;;;;4.75;1.95;;;13.00;92.00;;;;;;5012613;28;20022;-71
2021/10/13 04:09:46;;;;;;;4.57;2.00;;;13.00;92.00;;;;;;5014113;28;20022;-71
2021/10/13 04:12:12;;;;;;;4.18;1.90;;;13.00;92.00;;;;;;5014538;28;20117;-71
2021/10/13 04:14:38;;;;;;;6.18;2.15;;;13.00;92.00;;;;;;5014527;28;20036;-71
2021/10/13 04:17:03;;;;;;;5.88;2.03;;;13.00;92.00;;;;;;5014440;28;20030;-71
2021/10/13 04:19:29;;;;;;;4.25;2.00;;;13.00;92.10;;;;;;5014091;28;20030;-71
2021/10/13 04:21:54;;;;;;;5.20;2.17;;;13.00;92.00;;;;;;5014278;28;20052;-72
2021/10/13 04:24:20;;;;;;;6.25;2.25;;;13.00;92.10;;;;;;5014146;28;20026;-72
2021/10/13 04:26:48;;;;;;;4.93;2.20;;;13.00;91.90;;;;;;5014325;28;20053;-70
2021/10/13 04:29:14;;;;;;;4.63;2.20;;;13.00;92.00;;;;;;5013802;28;20018;-71
2021/10/13 04:31:39;;;;;;;6.07;2.28;;;13.00;91.90;;;;;;5012911;28;20022;-71
2021/10/13 04:34:05;;;;;;;4.22;2.38;;;13.00;92.00;;;;;;5010679;28;20041;-72
2021/10/13 04:36:30;;;;;;;4.35;2.20;;;13.00;91.90;;;;;;5002940;28;20021;-71
2021/10/13 04:38:56;;;;;;;5.30;2.47;;;13.00;91.90;;;;;;5013564;28;20410;-71
2021/10/13 04:41:21;;;;;;;4.65;2.13;;;13.00;92.00;;;;;;5014050;28;20037;-72
2021/10/13 04:43:47;;;;;;;4.95;2.35;;;13.00;92.00;;;;;;5013858;28;20489;-72
2021/10/13 04:46:12;;;;;;;4.13;2.40;;;13.00;91.90;;;;;;5013842;28;20033;-71
2021/10/13 04:48:38;;;;;;;4.65;2.53;;;13.00;92.00;;;;;;5013341;28;20068;-71
2021/10/13 04:51:03;;;;;;;6.28;2.72;;;13.00;91.90;;;;;;5003691;28;20039;-72
2021/10/13 04:53:29;;;;;;;5.82;2.60;;;13.00;91.90;;;;;;5011553;28;20033;-71
2021/10/13 04:55:54;;;;;;;6.30;2.65;;;12.90;91.80;;;;;;5013666;28;20486;-71
2021/10/13 04:58:20;;;;;;;5.30;2.60;;;13.00;92.00;;;;;;5012688;28;20033;-71
2021/10/13 05:00:45;;;;;;;4.80;2.60;;;13.00;91.90;;;;;;5011967;28;20033;-71
2021/10/13 05:03:11;;;;;;;6.88;3.10;;;13.00;92.00;;;;;;5013208;28;20018;-72
2021/10/13 05:05:37;;;;;;;6.03;2.70;;;12.90;91.90;;;;;;5013474;28;20026;-71
2021/10/13 05:08:04;;;;;;;5.45;2.90;;;12.90;91.80;;;;;;5012082;28;20032;-71
2021/10/13 05:10:30;;;;;;;5.25;2.72;;;12.90;91.90;;;;;;5013182;28;20025;-71
2021/10/13 05:12:55;;;;;;;5.05;2.90;;;12.90;91.80;;;;;;5013465;28;20022;-71
2021/10/13 05:15:21;;;;;;;5.13;2.83;;;12.90;91.70;;;;;;5013383;28;20068;-72
2021/10/13 05:17:47;;;;;;;5.20;3.10;;;12.90;91.80;;;;;;5013374;28;20030;-71
2021/10/13 05:20:12;;;;;;;5.03;2.75;;;12.90;91.70;;;;;;5011596;28;20048;-71
2021/10/13 05:22:38;;;;;;;5.78;2.80;;;12.90;91.80;;;;;;5013142;28;20505;-71
2021/10/13 05:25:04;;;;;;;5.68;2.88;;;12.90;92.00;;;;;;5013081;28;20041;-72
2021/10/13 05:27:30;;;;;;;5.03;2.80;;;12.90;92.10;;;;;;5013211;28;20481;-71
2021/10/13 05:29:55;;;;;;;5.50;3.10;;;12.90;91.80;;;;;;5012755;28;20041;-73
2021/10/13 05:32:21;;;;;;;7.22;2.97;;;12.90;91.90;;;;;;5013039;28;20083;-71
2021/10/13 05:34:46;;;;;;;5.35;2.90;;;12.90;91.90;;;;;;5012894;28;20037;-71
2021/10/13 05:37:12;;;;;;;5.72;3.30;;;12.90;91.60;;;;;;5012888;28;20037;-71
2021/10/13 05:39:37;;;;;;;6.13;3.45;;;12.90;91.90;;;;;;5012597;28;20065;-71
2021/10/13 05:42:03;;;;;;;5.40;2.90;;;12.90;91.90;;;;;;5012954;28;20057;-70
2021/10/13 05:44:29;;;;;;;8.23;3.75;;;12.90;91.90;;;;;;5012803;28;20559;-71
2021/10/13 05:46:54;;;;;;;8.82;3.33;;;12.90;91.90;;;;;;5012875;28;20449;-72
2021/10/13 05:49:20;;;;;;;6.22;3.25;;;12.90;91.80;;;;;;5010984;28;20527;-71
2021/10/13 05:51:45;;;;;;;6.22;3.40;;;12.90;91.90;;;;;;5012907;28;20022;-71
2021/10/13 05:54:11;;;;;;;6.05;3.47;;;12.90;92.00;;;;;;5012951;28;20034;-71
2021/10/13 05:56:37;;;;;;;6.68;3.38;;;12.90;91.90;;;;;;5012931;28;20096;-71
2021/10/13 05:59:03;;;;;;;6.35;3.50;;;12.90;91.90;;;;;;5011248;28;20032;-70
2021/10/13 06:01:28;;;;;;;6.82;3.60;;;12.80;91.80;;;;;;5012907;28;20030;-71
2021/10/13 06:03:54;;;;;;;7.47;3.70;;;12.80;91.90;;;;;;5013062;28;20080;-70
2021/10/13 06:06:19;;;;;;;8.25;3.47;;;12.80;91.60;;;;;;5011894;28;20044;-71
2021/10/13 06:08:45;;;;;;;6.47;3.30;;;12.80;91.70;;;;;;5011847;28;20018;-72
2021/10/13 06:11:11;;;;;;;7.45;3.75;;;12.80;91.70;;;;;;5011886;28;20493;-72
2021/10/13 06:13:38;;;;;;;7.60;3.67;;;12.80;91.80;;;;;;5012397;28;20424;-72
2021/10/13 06:16:04;;;;;;;8.20;3.95;;;12.80;91.90;;;;;;5012325;28;20021;-71
2021/10/13 06:18:29;;;;;;;6.22;3.15;;;12.80;91.80;;;;;;5012085;28;20459;-71
2021/10/13 06:20:55;;;;;;;6.30;3.60;;;12.80;91.80;;;;;;5012403;28;20113;-71
2021/10/13 06:23:20;;;;;;;8.20;3.63;;;12.80;91.70;;;;;;5012295;28;20474;-71
2021/10/13 06:25:46;;;;;;;5.68;3.50;;;12.80;91.80;;;;;;5011097;28;20105;-71
2021/10/13 06:28:12;;;;;;;7.25;3.67;;;12.80;91.70;;;;;;5012050;28;20500;-72
2021/10/13 06:30:37;;;;;;;6.68;3.60;;;12.80;91.70;;;;;;5012052;28;20033;-71
2021/10/13 06:33:06;;;;;;;6.72;3.75;;;12.80;91.70;;;;;;5012194;28;20022;-71
2021/10/13 06:35:32;;;;;;;8.02;3.78;;;12.80;91.70;;;;;;5012320;28;20038;-71
2021/10/13 06:37:58;;;;;;;6.68;3.80;;;12.80;91.60;;;;;;5011742;28;20025;-71
2021/10/13 06:40:23;;;;;;;7.22;3.63;;;12.80;91.60;;;;;;5011742;28;20032;-71
2021/10/13 06:42:49;;;;;;;8.80;4.10;;;12.80;91.80;;;;;;5012265;28;20025;-71
2021/10/13 06:45:15;;;;;;;28.10;5.07;;;12.80;91.80;;;;;;5011993;28;20483;-71
2021/10/13 06:47:41;;;;;;;26.38;5.15;;;12.80;91.20;;;;;;5012169;28;20022;-71
2021/10/13 06:50:08;;;;;;;16.98;4.43;;;12.80;90.90;;;;;;5011530;28;20029;-71
2021/10/13 06:52:34;;;;;;;11.65;4.00;;;12.80;91.40;;;;;;5012074;28;20025;-71
2021/10/13 06:55:00;;;;;;;11.13;4.10;;;12.80;91.50;;;;;;5010949;28;20026;-71
2021/10/13 06:57:25;;;;;;;10.30;3.67;;;12.80;91.30;;;;;;5012281;28;20161;-71
2021/10/13 06:59:51;;;;;;;10.57;5.22;;;12.80;91.40;;;;;;5011057;28;20022;-70
2021/10/13 07:02:16;;;;;;;11.88;5.13;;;12.60;87.90;;;;;;5012128;28;20163;-71
2021/10/13 07:04:42;;;;;;;8.80;4.13;;;12.50;90.50;;;;;;5011752;28;20030;-71
2021/10/13 07:07:07;;;;;;;12.95;4.65;;;12.60;91.40;;;;;;5010691;28;20033;-71
2021/10/13 07:09:33;;;;;;;10.15;5.05;;;12.60;90.80;;;;;;5011555;28;20625;-70
2021/10/13 07:11:59;;;;;;;8.93;4.70;;;12.30;88.20;;;;;;5012003;28;20096;-71
2021/10/13 07:14:25;;;;;;;7.90;4.40;;;12.10;88.70;;;;;;5010229;28;20060;-70
2021/10/13 07:16:51;;;;;;;10.05;4.80;;;11.90;89.30;;;;;;5011277;28;20044;-71
2021/10/13 07:19:16;;;;;;;7.55;4.47;;;11.80;89.80;;;;;;5009671;28;20516;-72
2021/10/13 07:21:42;;;;;;;8.90;4.60;;;11.80;90.00;;;;;;5011403;28;20026;-71
2021/10/13 07:24:08;;;;;;;10.68;4.50;;;11.80;89.90;;;;;;5015426;28;20022;-71
2021/10/13 07:26:35;;;;;;;8.20;4.18;;;11.70;89.80;;;;;;5015613;28;20026;-71
2021/10/13 07:29:01;;;;;;;12.43;5.13;;;11.70;90.10;;;;;;5014053;28;20026;-71
2021/10/13 07:31:27;;;;;;;9.77;4.15;;;11.80;90.20;;;;;;5015348;28;20018;-71
2021/10/13 07:33:53;;;;;;;11.18;4.38;;;11.80;89.40;;;;;;5015627;28;20125;-71
2021/10/13 07:36:20;;;;;;;9.32;4.70;;;11.70;90.10;;;;;;5015428;28;20026;-70
2021/10/13 07:38:46;;;;;;;7.82;4.03;;;11.70;90.00;;;;;;5015224;28;20025;-71
2021/10/13 07:41:14;;;;;;;7.13;3.85;;;11.70;90.00;;;;;;5015340;28;20036;-71
2021/10/13 07:43:40;;;;;;;9.90;4.43;;;11.70;90.00;;;;;;5015549;28;20050;-71
2021/10/13 07:46:05;;;;;;;7.78;3.95;;;11.60;90.10;;;;;;5013949;28;20559;-70
2021/10/13 07:48:31;;;;;;;7.57;4.00;;;11.60;90.20;;;;;;5013516;28;20325;-71
2021/10/13 07:50:57;;;;;;;8.20;4.65;;;11.60;90.20;;;;;;5015077;28;20022;-70
2021/10/13 07:53:23;;;;;;;7.28;4.50;;;11.60;90.50;;;;;;5015198;28;20075;-70
2021/10/13 07:55:49;;;;;;;8.13;4.18;;;11.60;90.30;;;;;;5014989;28;20133;-70
2021/10/13 07:58:14;;;;;;;9.90;4.43;;;11.70;90.40;;;;;;5013579;28;20094;-72
2021/10/13 08:00:40;;;;;;;9.32;4.03;;;11.60;90.30;;;;;;5014633;28;20076;-70
2021/10/13 08:03:06;;;;;;;8.32;4.07;;;11.70;90.60;;;;;;5014936;28;20037;-70
2021/10/13 08:05:31;;;;;;;6.53;3.78;;;11.70;90.60;;;;;;5015138;28;20026;-71
2021/10/13 08:07:57;;;;;;;7.60;4.32;;;11.70;90.80;;;;;;5014828;28;20030;-72
2021/10/13 08:10:23;;;;;;;9.48;4.78;;;11.70;91.00;;;;;;5014490;28;20018;-70
2021/10/13 08:12:49;;;;;;;9.43;4.25;;;11.70;91.20;;;;;;5014850;28;20477;-70
2021/10/13 08:15:16;;;;;;;9.80;4.30;;;11.60;91.40;;;;;;5014560;28;20037;-70
2021/10/13 08:17:42;;;;;;;9.38;4.47;;;11.60;91.40;;;;;;5014681;28;20048;-71
2021/10/13 08:20:10;;;;;;;9.77;4.75;;;11.60;91.50;;;;;;5014260;28;20481;-70
2021/10/13 08:22:36;;;;;;;10.13;4.28;;;11.70;91.60;;;;;;5014573;28;20512;-72
2021/10/13 08:25:02;;;;;;;10.63;4.55;;;11.70;91.60;;;;;;5014626;28;20065;-72
2021/10/13 08:27:28;;;;;;;8.27;4.65;;;11.70;91.60;;;;;;5013164;28;20509;-71
2021/10/13 08:29:53;;;;;;;10.45;4.65;;;11.70;91.70;;;;;;5014028;28;20104;-71
2021/10/13 08:32:19;;;;;;;8.18;4.45;;;11.80;91.70;;;;;;5014210;28;20014;-69
2021/10/13 08:34:44;;;;;;;9.10;4.63;;;11.80;91.60;;;;;;5014008;28;20022;-70
2021/10/13 08:37:10;;;;;;;9.93;4.88;;;11.80;91.60;;;;;;5013026;28;20033;-71
2021/10/13 08:39:35;;;;;;;8.68;4.82;;;11.90;91.60;;;;;;5013969;28;20037;-71
2021/10/13 08:42:01;;;;;;;11.23;5.00;;;11.90;91.40;;;;;;5012850;28;20374;-70
2021/10/13 08:44:27;;;;;;;9.43;4.75;;;11.90;91.60;;;;;;5012681;28;20049;-70
2021/10/13 08:46:53;;;;;;;9.88;5.35;;;12.00;91.70;;;;;;5012768;28;20050;-71
2021/10/13 08:49:19;;;;;;;9.25;4.70;;;11.90;91.60;;;;;;5013713;28;20048;-71
2021/10/13 08:51:44;;;;;;;9.40;4.93;;;12.00;91.70;;;;;;5014051;28;20045;-71
2021/10/13 08:54:13;;;;;;;11.70;5.22;;;12.00;91.60;;;;;;5013968;28;20030;-71
2021/10/13 08:56:40;;;;;;;9.95;5.25;;;12.00;91.70;;;;;;5013960;28;20018;-71
2021/10/13 08:59:06;;;;;;;9.80;5.05;;;12.10;91.70;;;;;;5013968;28;20060;-71
2021/10/13 09:01:31;;;;;;;8.85;5.20;;;12.00;91.90;;;;;;5013721;28;20065;-71
2021/10/13 09:04:00;;;;;;;10.88;5.40;;;12.00;92.20;;;;;;5013706;28;20034;-70
2021/10/13 09:06:28;;;;;;;9.40;4.70;;;12.00;92.40;;;;;;5013764;28;20032;-71
2021/10/13 09:09:11;;;;;;;9.75;4.65;;;12.00;92.30;;;;;;5013390;28;20401;-71
2021/10/13 09:11:41;;;;;;;9.55;4.65;;;12.10;92.20;;;;;;5014006;28;20436;-71
2021/10/13 09:14:11;;;;;;;12.63;4.97;;;12.10;92.30;;;;;;5013482;28;20026;-71
2021/10/13 09:17:02;;;;;;;11.07;5.30;;;12.10;92.40;;;;;;5013501;28;20083;-70
2021/10/13 09:19:36;;;;;;;10.65;4.75;;;12.10;92.40;;;;;;5013190;28;20029;-71
2021/10/13 09:22:07;;;;;;;15.27;4.85;;;12.10;92.40;;;;;;5013558;28;20072;-71
2021/10/13 09:24:38;;;;;;;10.63;4.83;;;12.10;92.50;;;;;;5013407;28;20049;-71
2021/10/13 09:27:36;;;;;;;9.48;3.80;;;12.10;92.70;;;;;;5013496;28;20030;-70
2021/10/13 09:30:07;;;;;;;9.77;3.60;;;12.10;92.50;;;;;;4969523;28;20041;-71
2021/10/13 09:32:32;;;;;;;8.93;3.75;;;12.10;92.60;;;;;;5013228;28;20437;-71
2021/10/13 09:34:58;;;;;;;9.15;4.18;;;12.10;92.60;;;;;;5013189;28;20164;-70
2021/10/13 09:37:40;;;;;;;8.70;4.50;;;12.10;92.70;;;;;;5013150;28;20029;-71
2021/10/13 09:40:06;;;;;;;9.18;4.50;;;12.10;92.70;;;;;;5012861;28;20072;-71
2021/10/13 09:42:40;;;;;;;9.32;4.35;;;12.20;92.70;;;;;;5013310;28;20030;-70
2021/10/13 09:45:11;;;;;;;11.30;4.50;;;12.20;92.70;;;;;;5012265;28;20394;-70
2021/10/13 09:47:36;;;;;;;11.60;4.97;;;12.10;92.70;;;;;;5013451;28;20515;-71
2021/10/13 09:50:11;;;;;;;11.60;4.90;;;12.10;92.70;;;;;;5013359;28;20070;-69
2021/10/13 09:52:37;;;;;;;11.38;5.13;;;12.20;92.90;;;;;;5013869;28;20036;-70
2021/10/13 09:55:13;;;;;;;10.88;4.13;;;12.20;92.80;;;;;;5013926;28;20030;-70
2021/10/13 09:57:47;;;;;;;10.70;4.63;;;12.20;92.70;;;;;;5013738;28;20026;-70
2021/10/13 10:00:21;;;;;;;13.27;4.90;;;12.30;92.70;;;;;;5012744;28;20052;-71
2021/10/13 10:02:51;;;;;;;12.23;4.80;;;12.30;92.70;;;;;;5012696;28;20033;-71
2021/10/13 10:05:38;;;;;;;11.57;3.95;;;12.20;92.60;;;;;;5012719;28;20029;-71
2021/10/13 10:08:06;;;;;;;19.63;4.93;;;12.30;92.70;;;;;;5027665;28;20481;-70
2021/10/13 10:10:33;;;;;;;13.95;5.22;;;12.20;92.80;;;;;;5011066;28;20022;-71
2021/10/13 10:13:00;;;;;;;9.73;4.90;;;12.20;92.80;;;;;;5011488;28;20405;-72
2021/10/13 10:15:46;;;;;;;8.05;3.88;;;12.20;92.80;;;;;;5012513;28;20038;-71
2021/10/13 10:18:29;;;;;;;8.45;4.40;;;12.20;92.90;;;;;;5011218;28;20374;-70
2021/10/13 10:20:56;;;;;;;8.43;4.28;;;12.20;93.10;;;;;;5012526;28;20029;-70
2021/10/13 10:23:26;;;;;;;10.20;4.30;;;12.30;93.00;;;;;;5012466;28;20026;-72
2021/10/13 10:25:53;;;;;;;8.50;3.97;;;12.30;92.80;;;;;;5012654;28;20021;-73
2021/10/13 10:28:50;;;;;;;8.52;4.35;;;12.30;92.90;;;;;;5012051;28;20080;-70
2021/10/13 10:31:27;;;;;;;12.10;4.47;;;12.40;93.00;;;;;;5011825;28;20036;-71
2021/10/13 10:34:05;;;;;;;8.85;4.18;;;12.40;93.00;;;;;;5009102;28;20382;-72
2021/10/13 10:36:33;;;;;;;12.35;4.15;;;12.40;92.90;;;;;;5011211;28;20501;-70
2021/10/13 10:38:59;;;;;;;16.55;4.40;;;12.40;92.90;;;;;;5010869;28;20057;-71
2021/10/13 10:41:40;;;;;;;15.05;4.28;;;12.50;92.70;;;;;;5012154;28;20150;-71
2021/10/13 10:44:37;;;;;;;13.07;4.53;;;12.50;93.10;;;;;;5010731;28;20037;-71
2021/10/13 10:49:55;;;;;;;11.45;3.80;;;12.60;92.90;;;;;;5009559;28;20076;-68
2021/10/13 10:52:30;;;;;;;7.00;3.80;;;12.70;92.60;;;;;;5011777;28;20559;-69
2021/10/13 10:54:58;;;;;;;9.30;3.70;;;12.70;92.40;;;;;;5011924;28;20054;-69
2021/10/13 10:57:49;;;;;;;12.40;3.70;;;12.70;92.20;;;;;;5014466;28;20026;-68
2021/10/13 11:00:21;;;;;;;10.63;4.00;;;12.70;92.10;;;;;;5014398;28;20318;-68
2021/10/13 11:02:48;;;;;;;6.78;3.05;;;12.80;92.20;;;;;;5014532;28;20040;-68
2021/10/13 11:05:14;;;;;;;8.38;3.42;;;12.80;92.10;;;;;;5015691;28;20026;-68
2021/10/13 11:07:47;;;;;;;7.78;3.60;;;12.80;92.10;;;;;;5015698;28;20026;-68
2021/10/13 11:10:14;;;;;;;6.90;3.10;;;12.80;92.20;;;;;;5015330;28;20489;-68
2021/10/13 11:12:51;;;;;;;9.18;3.60;;;12.80;92.00;;;;;;5014345;28;20096;-69
2021/10/13 11:15:20;;;;;;;7.32;3.20;;;12.80;91.90;;;;;;5015878;28;20026;-68
2021/10/13 11:17:46;;;;;;;7.30;3.45;;;12.80;92.40;;;;;;5015592;28;20630;-68
2021/10/13 11:20:21;;;;;;;7.03;3.00;;;12.90;92.80;;;;;;5015413;28;20030;-68
2021/10/13 11:23:00;;;;;;;7.78;3.08;;;12.90;92.40;;;;;;5015282;28;20416;-68
2021/10/13 11:25:26;;;;;;;9.32;3.22;;;12.90;92.60;;;;;;5015373;28;20033;-69
2021/10/13 11:28:02;;;;;;;7.95;3.28;;;12.90;93.20;;;;;;5014080;28;20025;-68
2021/10/13 11:30:35;;;;;;;8.10;2.78;;;12.90;92.60;;;;;;5013745;28;20029;-69
2021/10/13 11:33:07;;;;;;;6.50;3.00;;;12.90;92.80;;;;;;5015229;28;20417;-68
2021/10/13 11:35:33;;;;;;;5.40;2.97;;;13.00;93.60;;;;;;5015253;28;20034;-68
2021/10/13 11:37:59;;;;;;;8.13;3.10;;;13.00;93.00;;;;;;5015126;28;20030;-68
2021/10/13 11:40:26;;;;;;;7.00;2.90;;;13.00;92.90;;;;;;5014809;28;20022;-68
2021/10/13 11:42:56;;;;;;;5.68;2.63;;;13.00;92.80;;;;;;5015090;28;20026;-68
2021/10/13 11:45:22;;;;;;;7.10;3.05;;;13.00;93.20;;;;;;5015009;28;20022;-69
2021/10/13 11:47:48;;;;;;;9.02;3.08;;;13.00;93.50;;;;;;5013444;28;20088;-68
2021/10/13 11:50:21;;;;;;;8.77;2.70;;;13.00;93.40;;;;;;5014729;28;20030;-69
2021/10/13 11:52:55;;;;;;;6.20;2.75;;;13.00;92.90;;;;;;5046760;28;20052;-69
2021/10/13 11:55:26;;;;;;;7.20;2.60;;;13.00;93.30;;;;;;5015024;28;20497;-68
2021/10/13 11:58:00;;;;;;;6.82;2.80;;;13.00;93.40;;;;;;5013507;28;20517;-69
2021/10/13 12:00:28;;;;;;;6.47;2.75;;;13.00;93.20;;;;;;5014499;28;20489;-68
2021/10/13 12:03:08;;;;;;;7.13;2.50;;;13.00;93.30;;;;;;5014752;28;20084;-68
2021/10/13 12:05:52;;;;;;;5.75;2.60;;;13.00;93.10;;;;;;5014681;28;20053;-68
2021/10/13 12:08:24;;;;;;;6.90;2.75;;;13.00;93.30;;;;;;5013745;28;20072;-68
2021/10/13 12:10:53;;;;;;;7.20;2.50;;;13.00;93.30;;;;;;5014521;28;20053;-69
2021/10/13 12:13:24;;;;;;;5.15;2.38;;;13.00;93.10;;;;;;5014521;28;20457;-68
2021/10/13 12:15:50;;;;;;;5.65;2.17;;;13.10;93.30;;;;;;5013273;28;20398;-68
2021/10/13 12:18:21;;;;;;;4.85;2.20;;;13.00;92.70;;;;;;5014446;28;20034;-68
2021/10/13 12:21:01;;;;;;;6.82;2.20;;;13.10;93.00;;;;;;5014447;28;20564;-68
2021/10/13 12:23:29;;;;;;;5.73;2.13;;;13.00;92.70;;;;;;5014140;28;20057;-68
2021/10/13 12:25:55;;;;;;;4.78;1.90;;;13.00;92.30;;;;;;5012939;28;20360;-68
2021/10/13 12:28:29;;;;;;;7.90;2.70;;;13.10;92.40;;;;;;5013959;28;20037;-69
2021/10/13 12:31:05;;;;;;;6.75;2.40;;;13.10;93.00;;;;;;5014246;28;20022;-68
2021/10/13 12:33:41;;;;;;;5.10;2.17;;;13.00;92.70;;;;;;5012789;28;20030;-68
2021/10/13 12:36:13;;;;;;;5.38;2.03;;;13.00;92.80;;;;;;5014146;28;20080;-68
2021/10/13 12:39:00;;;;;;;5.88;2.30;;;13.10;92.90;;;;;;5013681;28;20454;-68
2021/10/13 12:41:43;;;;;;;5.78;1.98;;;13.10;93.50;;;;;;5014026;28;20116;-68
2021/10/13 12:44:25;;;;;;;4.30;2.20;;;13.10;93.70;;;;;;5013814;28;20033;-68
2021/10/13 12:46:59;;;;;;;6.10;1.85;;;13.10;93.50;;;;;;5013880;28;20534;-68
2021/10/13 12:49:29;;;;;;;4.30;1.67;;;13.10;93.50;;;;;;5013415;28;20030;-68
2021/10/13 12:52:05;;;;;;;5.90;2.00;;;13.10;92.90;;;;;;5013986;28;20040;-69
2021/10/13 12:54:33;;;;;;;5.18;1.83;;;13.10;93.00;;;;;;5013648;28;20101;-68
2021/10/13 12:56:59;;;;;;;5.20;1.80;;;13.10;92.50;;;;;;5013726;28;20034;-68